sensor_id;sensor_type;location;lat;lon;timestamp;P1;durP1;ratioP1;P2;durP2;ratioP2
15764;SDS011;7983;50.744;7.086;2023-06-14T00:01:51;3.35;;;2.97;;
15764;SDS011;7983;50.744;7.086;2023-06-14T00:04:17;3.70;;;3.40;;
15764;SDS011;7983;50.744;7.086;2023-06-14T00:06:45;3.78;;;3.10;;
15764;SDS011;7983;50.744;7.086;2023-06-14T00:09:15;3.78;;;3.05;;
15764;SDS011;7983;50.744;7.086;2023-06-14T00:11:43;5.22;;;3.10;;
15764;SDS011;7983;50.744;7.086;2023-06-14T00:14:09;3.40;;;3.00;;
15764;SDS011;7983;50.744;7.086;2023-06-14T00:16:35;3.70;;;3.30;;
15764;SDS011;7983;50.744;7.086;2023-06-14T00:19:02;3.92;;;3.17;;
15764;SDS011;7983;50.744;7.086;2023-06-14T00:21:31;4.05;;;3.40;;
15764;SDS011;7983;50.744;7.086;2023-06-14T00:24:00;4.20;;;3.55;;
15764;SDS011;7983;50.744;7.086;2023-06-14T00:26:28;4.15;;;3.40;;
15764;SDS011;7983;50.744;7.086;2023-06-14T00:28:56;3.53;;;3.22;;
15764;SDS011;7983;50.744;7.086;2023-06-14T00:31:25;4.10;;;3.42;;
15764;SDS011;7983;50.744;7.086;2023-06-14T00:33:50;4.13;;;3.72;;
15764;SDS011;7983;50.744;7.086;2023-06-14T00:36:16;3.90;;;3.50;;
15764;SDS011;7983;50.744;7.086;2023-06-14T00:38:44;4.13;;;3.58;;
15764;SDS011;7983;50.744;7.086;2023-06-14T00:41:09;4.07;;;3.50;;
15764;SDS011;7983;50.744;7.086;2023-06-14T00:43:37;4.03;;;3.40;;
15764;SDS011;7983;50.744;7.086;2023-06-14T00:46:03;4.80;;;3.67;;
15764;SDS011;7983;50.744;7.086;2023-06-14T00:48:29;4.28;;;3.60;;
15764;SDS011;7983;50.744;7.086;2023-06-14T00:50:55;3.38;;;3.08;;
15764;SDS011;7983;50.744;7.086;2023-06-14T00:53:25;4.57;;;3.42;;
15764;SDS011;7983;50.744;7.086;2023-06-14T00:55:54;5.30;;;3.55;;
15764;SDS011;7983;50.744;7.086;2023-06-14T00:58:20;4.95;;;3.63;;
15764;SDS011;7983;50.744;7.086;2023-06-14T01:00:50;4.95;;;3.80;;
15764;SDS011;7983;50.744;7.086;2023-06-14T01:03:21;9.35;;;3.40;;
15764;SDS011;7983;50.744;7.086;2023-06-14T01:05:56;3.47;;;3.17;;
15764;SDS011;7983;50.744;7.086;2023-06-14T01:08:42;6.10;;;3.90;;
15764;SDS011;7983;50.744;7.086;2023-06-14T01:11:22;5.32;;;4.15;;
15764;SDS011;7983;50.744;7.086;2023-06-14T01:13:53;6.07;;;3.72;;
15764;SDS011;7983;50.744;7.086;2023-06-14T01:16:21;8.20;;;5.05;;
15764;SDS011;7983;50.744;7.086;2023-06-14T01:18:48;8.55;;;4.30;;
15764;SDS011;7983;50.744;7.086;2023-06-14T01:21:21;4.30;;;3.88;;
15764;SDS011;7983;50.744;7.086;2023-06-14T01:23:50;3.83;;;3.42;;
15764;SDS011;7983;50.744;7.086;2023-06-14T01:26:27;4.35;;;3.92;;
15764;SDS011;7983;50.744;7.086;2023-06-14T01:28:55;3.92;;;3.53;;
15764;SDS011;7983;50.744;7.086;2023-06-14T01:31:23;4.28;;;3.88;;
15764;SDS011;7983;50.744;7.086;2023-06-14T01:33:49;4.57;;;3.58;;
15764;SDS011;7983;50.744;7.086;2023-06-14T01:36:21;5.30;;;3.88;;
15764;SDS011;7983;50.744;7.086;2023-06-14T01:38:55;4.03;;;3.40;;
15764;SDS011;7983;50.744;7.086;2023-06-14T01:41:25;3.90;;;3.50;;
15764;SDS011;7983;50.744;7.086;2023-06-14T01:43:53;3.85;;;3.20;;
15764;SDS011;7983;50.744;7.086;2023-06-14T01:46:20;3.92;;;3.40;;
15764;SDS011;7983;50.744;7.086;2023-06-14T01:48:46;4.40;;;3.60;;
15764;SDS011;7983;50.744;7.086;2023-06-14T01:51:15;3.72;;;3.35;;
15764;SDS011;7983;50.744;7.086;2023-06-14T01:53:40;3.75;;;3.35;;
15764;SDS011;7983;50.744;7.086;2023-06-14T01:56:06;3.67;;;3.38;;
15764;SDS011;7983;50.744;7.086;2023-06-14T01:58:32;6.38;;;3.53;;
15764;SDS011;7983;50.744;7.086;2023-06-14T02:00:58;3.88;;;3.47;;
15764;SDS011;7983;50.744;7.086;2023-06-14T02:03:25;3.97;;;3.05;;
15764;SDS011;7983;50.744;7.086;2023-06-14T02:05:51;3.70;;;3.30;;
15764;SDS011;7983;50.744;7.086;2023-06-14T02:08:17;4.28;;;3.50;;
15764;SDS011;7983;50.744;7.086;2023-06-14T02:10:43;3.47;;;3.17;;
15764;SDS011;7983;50.744;7.086;2023-06-14T02:13:11;4.47;;;3.58;;
15764;SDS011;7983;50.744;7.086;2023-06-14T02:15:37;3.90;;;3.38;;
15764;SDS011;7983;50.744;7.086;2023-06-14T02:18:03;4.35;;;3.50;;
15764;SDS011;7983;50.744;7.086;2023-06-14T02:20:29;3.70;;;3.40;;
15764;SDS011;7983;50.744;7.086;2023-06-14T02:22:55;4.13;;;3.50;;
15764;SDS011;7983;50.744;7.086;2023-06-14T02:25:21;4.18;;;3.55;;
15764;SDS011;7983;50.744;7.086;2023-06-14T02:27:49;3.78;;;3.38;;
15764;SDS011;7983;50.744;7.086;2023-06-14T02:30:15;3.50;;;3.17;;
15764;SDS011;7983;50.744;7.086;2023-06-14T02:32:41;4.18;;;3.78;;
15764;SDS011;7983;50.744;7.086;2023-06-14T02:35:08;4.50;;;3.65;;
15764;SDS011;7983;50.744;7.086;2023-06-14T02:37:36;5.57;;;4.03;;
15764;SDS011;7983;50.744;7.086;2023-06-14T02:40:05;4.03;;;3.50;;
15764;SDS011;7983;50.744;7.086;2023-06-14T02:42:31;4.10;;;3.70;;
15764;SDS011;7983;50.744;7.086;2023-06-14T02:44:56;4.03;;;3.63;;
15764;SDS011;7983;50.744;7.086;2023-06-14T02:47:22;4.20;;;3.80;;
15764;SDS011;7983;50.744;7.086;2023-06-14T02:49:49;5.10;;;3.78;;
15764;SDS011;7983;50.744;7.086;2023-06-14T02:52:15;3.80;;;3.40;;
15764;SDS011;7983;50.744;7.086;2023-06-14T02:54:41;4.68;;;3.55;;
15764;SDS011;7983;50.744;7.086;2023-06-14T02:57:06;3.70;;;3.30;;
15764;SDS011;7983;50.744;7.086;2023-06-14T02:59:33;3.50;;;3.20;;
15764;SDS011;7983;50.744;7.086;2023-06-14T03:02:01;4.05;;;3.65;;
15764;SDS011;7983;50.744;7.086;2023-06-14T03:04:28;4.15;;;3.70;;
15764;SDS011;7983;50.744;7.086;2023-06-14T03:06:54;4.10;;;3.63;;
15764;SDS011;7983;50.744;7.086;2023-06-14T03:09:20;3.95;;;3.55;;
15764;SDS011;7983;50.744;7.086;2023-06-14T03:11:46;3.95;;;3.55;;
15764;SDS011;7983;50.744;7.086;2023-06-14T03:14:11;5.10;;;3.83;;
15764;SDS011;7983;50.744;7.086;2023-06-14T03:16:38;4.85;;;3.72;;
15764;SDS011;7983;50.744;7.086;2023-06-14T03:19:06;5.88;;;3.80;;
15764;SDS011;7983;50.744;7.086;2023-06-14T03:21:32;5.00;;;3.70;;
15764;SDS011;7983;50.744;7.086;2023-06-14T03:23:59;4.68;;;3.63;;
15764;SDS011;7983;50.744;7.086;2023-06-14T03:26:25;5.32;;;3.63;;
15764;SDS011;7983;50.744;7.086;2023-06-14T03:28:53;3.92;;;3.53;;
15764;SDS011;7983;50.744;7.086;2023-06-14T03:31:19;4.63;;;3.75;;
15764;SDS011;7983;50.744;7.086;2023-06-14T03:33:48;4.68;;;4.18;;
15764;SDS011;7983;50.744;7.086;2023-06-14T03:36:14;4.60;;;3.88;;
15764;SDS011;7983;50.744;7.086;2023-06-14T03:38:39;5.22;;;4.15;;
15764;SDS011;7983;50.744;7.086;2023-06-14T03:41:05;4.80;;;3.95;;
15764;SDS011;7983;50.744;7.086;2023-06-14T03:43:31;4.50;;;3.80;;
15764;SDS011;7983;50.744;7.086;2023-06-14T03:45:56;4.43;;;3.67;;
15764;SDS011;7983;50.744;7.086;2023-06-14T03:48:24;4.40;;;4.00;;
15764;SDS011;7983;50.744;7.086;2023-06-14T03:50:50;3.85;;;3.45;;
15764;SDS011;7983;50.744;7.086;2023-06-14T03:53:16;4.05;;;3.50;;
15764;SDS011;7983;50.744;7.086;2023-06-14T03:55:41;4.95;;;3.47;;
15764;SDS011;7983;50.744;7.086;2023-06-14T03:58:07;5.40;;;3.90;;
15764;SDS011;7983;50.744;7.086;2023-06-14T04:00:33;4.22;;;3.70;;
15764;SDS011;7983;50.744;7.086;2023-06-14T04:02:58;5.25;;;3.97;;
15764;SDS011;7983;50.744;7.086;2023-06-14T04:05:24;4.45;;;3.83;;
15764;SDS011;7983;50.744;7.086;2023-06-14T04:07:51;5.95;;;3.60;;
15764;SDS011;7983;50.744;7.086;2023-06-14T04:10:22;4.57;;;3.88;;
15764;SDS011;7983;50.744;7.086;2023-06-14T04:12:48;5.32;;;3.65;;
15764;SDS011;7983;50.744;7.086;2023-06-14T04:15:14;4.68;;;3.58;;
15764;SDS011;7983;50.744;7.086;2023-06-14T04:17:41;4.28;;;3.38;;
15764;SDS011;7983;50.744;7.086;2023-06-14T04:20:07;5.30;;;3.45;;
15764;SDS011;7983;50.744;7.086;2023-06-14T04:22:37;5.10;;;3.35;;
15764;SDS011;7983;50.744;7.086;2023-06-14T04:25:05;4.30;;;3.63;;
15764;SDS011;7983;50.744;7.086;2023-06-14T04:27:37;3.72;;;3.42;;
15764;SDS011;7983;50.744;7.086;2023-06-14T04:30:03;4.82;;;4.07;;
15764;SDS011;7983;50.744;7.086;2023-06-14T04:32:32;4.10;;;3.70;;
15764;SDS011;7983;50.744;7.086;2023-06-14T04:35:03;4.45;;;3.67;;
15764;SDS011;7983;50.744;7.086;2023-06-14T04:37:33;4.10;;;3.67;;
15764;SDS011;7983;50.744;7.086;2023-06-14T04:39:58;4.88;;;3.80;;
15764;SDS011;7983;50.744;7.086;2023-06-14T04:42:28;3.92;;;3.40;;
15764;SDS011;7983;50.744;7.086;2023-06-14T04:44:57;5.18;;;3.50;;
15764;SDS011;7983;50.744;7.086;2023-06-14T04:47:26;4.60;;;3.38;;
15764;SDS011;7983;50.744;7.086;2023-06-14T04:49:54;4.40;;;3.40;;
15764;SDS011;7983;50.744;7.086;2023-06-14T04:52:25;3.45;;;3.15;;
15764;SDS011;7983;50.744;7.086;2023-06-14T04:54:51;4.03;;;3.30;;
15764;SDS011;7983;50.744;7.086;2023-06-14T04:57:19;5.28;;;3.28;;
15764;SDS011;7983;50.744;7.086;2023-06-14T04:59:47;4.72;;;3.60;;
15764;SDS011;7983;50.744;7.086;2023-06-14T05:02:13;3.67;;;2.97;;
15764;SDS011;7983;50.744;7.086;2023-06-14T05:04:39;4.90;;;3.50;;
15764;SDS011;7983;50.744;7.086;2023-06-14T05:07:07;4.63;;;3.13;;
15764;SDS011;7983;50.744;7.086;2023-06-14T05:09:36;3.20;;;2.78;;
15764;SDS011;7983;50.744;7.086;2023-06-14T05:12:02;3.28;;;2.72;;
15764;SDS011;7983;50.744;7.086;2023-06-14T05:14:33;5.47;;;3.42;;
15764;SDS011;7983;50.744;7.086;2023-06-14T05:16:59;3.88;;;3.08;;
15764;SDS011;7983;50.744;7.086;2023-06-14T05:19:25;5.32;;;2.95;;
15764;SDS011;7983;50.744;7.086;2023-06-14T05:21:51;3.70;;;3.05;;
15764;SDS011;7983;50.744;7.086;2023-06-14T05:24:19;3.25;;;2.92;;
15764;SDS011;7983;50.744;7.086;2023-06-14T05:26:46;5.03;;;3.10;;
15764;SDS011;7983;50.744;7.086;2023-06-14T05:29:11;5.18;;;2.90;;
15764;SDS011;7983;50.744;7.086;2023-06-14T05:31:40;4.38;;;2.83;;
15764;SDS011;7983;50.744;7.086;2023-06-14T05:34:05;4.47;;;2.97;;
15764;SDS011;7983;50.744;7.086;2023-06-14T05:36:31;4.03;;;2.95;;
15764;SDS011;7983;50.744;7.086;2023-06-14T05:39:01;4.47;;;2.88;;
15764;SDS011;7983;50.744;7.086;2023-06-14T05:41:28;3.58;;;2.78;;
15764;SDS011;7983;50.744;7.086;2023-06-14T05:43:56;3.75;;;2.80;;
15764;SDS011;7983;50.744;7.086;2023-06-14T05:46:23;3.38;;;2.70;;
15764;SDS011;7983;50.744;7.086;2023-06-14T05:48:52;3.85;;;3.00;;
15764;SDS011;7983;50.744;7.086;2023-06-14T05:51:18;4.32;;;2.80;;
15764;SDS011;7983;50.744;7.086;2023-06-14T05:53:46;3.97;;;3.13;;
15764;SDS011;7983;50.744;7.086;2023-06-14T05:56:15;4.70;;;3.50;;
15764;SDS011;7983;50.744;7.086;2023-06-14T05:58:45;6.60;;;5.07;;
15764;SDS011;7983;50.744;7.086;2023-06-14T06:01:13;4.88;;;4.15;;
15764;SDS011;7983;50.744;7.086;2023-06-14T06:03:39;6.60;;;4.30;;
15764;SDS011;7983;50.744;7.086;2023-06-14T06:06:06;4.03;;;3.47;;
15764;SDS011;7983;50.744;7.086;2023-06-14T06:08:33;4.95;;;3.83;;
15764;SDS011;7983;50.744;7.086;2023-06-14T06:10:58;7.57;;;4.65;;
15764;SDS011;7983;50.744;7.086;2023-06-14T06:13:26;4.78;;;3.90;;
15764;SDS011;7983;50.744;7.086;2023-06-14T06:15:54;3.83;;;3.42;;
15764;SDS011;7983;50.744;7.086;2023-06-14T06:18:25;3.25;;;2.90;;
15764;SDS011;7983;50.744;7.086;2023-06-14T06:20:50;4.20;;;3.00;;
15764;SDS011;7983;50.744;7.086;2023-06-14T06:23:16;8.43;;;5.78;;
15764;SDS011;7983;50.744;7.086;2023-06-14T06:25:42;6.28;;;4.72;;
15764;SDS011;7983;50.744;7.086;2023-06-14T06:28:13;4.40;;;3.70;;
15764;SDS011;7983;50.744;7.086;2023-06-14T06:30:38;4.13;;;2.80;;
15764;SDS011;7983;50.744;7.086;2023-06-14T06:33:06;3.33;;;2.90;;
15764;SDS011;7983;50.744;7.086;2023-06-14T06:35:32;5.32;;;2.58;;
15764;SDS011;7983;50.744;7.086;2023-06-14T06:37:58;4.70;;;2.70;;
15764;SDS011;7983;50.744;7.086;2023-06-14T06:40:26;6.88;;;2.75;;
15764;SDS011;7983;50.744;7.086;2023-06-14T06:42:52;4.68;;;2.50;;
15764;SDS011;7983;50.744;7.086;2023-06-14T06:45:18;3.17;;;2.88;;
15764;SDS011;7983;50.744;7.086;2023-06-14T06:47:44;3.22;;;2.40;;
15764;SDS011;7983;50.744;7.086;2023-06-14T06:50:11;5.40;;;3.08;;
15764;SDS011;7983;50.744;7.086;2023-06-14T06:52:37;3.95;;;3.13;;
15764;SDS011;7983;50.744;7.086;2023-06-14T06:55:03;3.75;;;2.63;;
15764;SDS011;7983;50.744;7.086;2023-06-14T06:57:31;3.65;;;2.80;;
15764;SDS011;7983;50.744;7.086;2023-06-14T06:59:59;3.00;;;2.30;;
15764;SDS011;7983;50.744;7.086;2023-06-14T07:02:25;3.92;;;2.30;;
15764;SDS011;7983;50.744;7.086;2023-06-14T07:04:50;3.15;;;2.50;;
15764;SDS011;7983;50.744;7.086;2023-06-14T07:07:17;3.35;;;2.67;;
15764;SDS011;7983;50.744;7.086;2023-06-14T07:09:45;6.10;;;2.35;;
15764;SDS011;7983;50.744;7.086;2023-06-14T07:12:11;3.67;;;2.42;;
15764;SDS011;7983;50.744;7.086;2023-06-14T07:14:36;4.20;;;2.35;;
15764;SDS011;7983;50.744;7.086;2023-06-14T07:17:04;4.18;;;3.40;;
15764;SDS011;7983;50.744;7.086;2023-06-14T07:19:30;3.80;;;2.63;;
15764;SDS011;7983;50.744;7.086;2023-06-14T07:21:56;5.50;;;2.88;;
15764;SDS011;7983;50.744;7.086;2023-06-14T07:24:23;4.90;;;2.67;;
15764;SDS011;7983;50.744;7.086;2023-06-14T07:26:48;2.38;;;2.17;;
15764;SDS011;7983;50.744;7.086;2023-06-14T07:29:14;2.88;;;2.20;;
15764;SDS011;7983;50.744;7.086;2023-06-14T07:31:41;2.90;;;2.00;;
15764;SDS011;7983;50.744;7.086;2023-06-14T07:34:09;2.88;;;2.22;;
15764;SDS011;7983;50.744;7.086;2023-06-14T07:36:34;3.33;;;2.20;;
15764;SDS011;7983;50.744;7.086;2023-06-14T07:39:01;2.78;;;2.15;;
15764;SDS011;7983;50.744;7.086;2023-06-14T07:41:31;2.95;;;1.90;;
15764;SDS011;7983;50.744;7.086;2023-06-14T07:43:57;1.90;;;1.70;;
15764;SDS011;7983;50.744;7.086;2023-06-14T07:46:22;1.95;;;1.75;;
15764;SDS011;7983;50.744;7.086;2023-06-14T07:48:48;2.47;;;1.70;;
15764;SDS011;7983;50.744;7.086;2023-06-14T07:51:16;2.22;;;1.58;;
15764;SDS011;7983;50.744;7.086;2023-06-14T07:53:46;2.35;;;1.63;;
15764;SDS011;7983;50.744;7.086;2023-06-14T07:56:15;1.77;;;1.50;;
15764;SDS011;7983;50.744;7.086;2023-06-14T07:58:43;2.25;;;1.70;;
15764;SDS011;7983;50.744;7.086;2023-06-14T08:01:09;2.17;;;1.50;;
15764;SDS011;7983;50.744;7.086;2023-06-14T08:03:37;1.67;;;1.58;;
15764;SDS011;7983;50.744;7.086;2023-06-14T08:06:03;1.65;;;1.55;;
15764;SDS011;7983;50.744;7.086;2023-06-14T08:08:29;1.70;;;1.60;;
15764;SDS011;7983;50.744;7.086;2023-06-14T08:10:55;1.70;;;1.50;;
15764;SDS011;7983;50.744;7.086;2023-06-14T08:13:21;2.78;;;1.70;;
15764;SDS011;7983;50.744;7.086;2023-06-14T08:15:47;1.83;;;1.70;;
15764;SDS011;7983;50.744;7.086;2023-06-14T08:18:15;2.10;;;1.77;;
15764;SDS011;7983;50.744;7.086;2023-06-14T08:20:43;2.53;;;1.75;;
15764;SDS011;7983;50.744;7.086;2023-06-14T08:23:08;1.88;;;1.42;;
15764;SDS011;7983;50.744;7.086;2023-06-14T08:25:34;1.95;;;1.60;;
15764;SDS011;7983;50.744;7.086;2023-06-14T08:28:00;3.58;;;1.77;;
15764;SDS011;7983;50.744;7.086;2023-06-14T08:30:28;1.70;;;1.40;;
15764;SDS011;7983;50.744;7.086;2023-06-14T08:32:53;2.83;;;1.40;;
15764;SDS011;7983;50.744;7.086;2023-06-14T08:35:21;2.20;;;1.52;;
15764;SDS011;7983;50.744;7.086;2023-06-14T08:37:49;1.90;;;1.60;;
15764;SDS011;7983;50.744;7.086;2023-06-14T08:40:22;1.67;;;1.40;;
15764;SDS011;7983;50.744;7.086;2023-06-14T08:42:54;2.05;;;1.30;;
15764;SDS011;7983;50.744;7.086;2023-06-14T08:45:23;1.38;;;1.25;;
15764;SDS011;7983;50.744;7.086;2023-06-14T08:47:52;3.58;;;1.65;;
15764;SDS011;7983;50.744;7.086;2023-06-14T08:50:23;1.73;;;1.40;;
15764;SDS011;7983;50.744;7.086;2023-06-14T08:52:51;3.78;;;1.65;;
15764;SDS011;7983;50.744;7.086;2023-06-14T08:55:20;1.58;;;1.40;;
15764;SDS011;7983;50.744;7.086;2023-06-14T08:57:50;1.50;;;1.40;;
15764;SDS011;7983;50.744;7.086;2023-06-14T09:00:20;2.22;;;1.40;;
15764;SDS011;7983;50.744;7.086;2023-06-14T09:02:47;1.90;;;1.27;;
15764;SDS011;7983;50.744;7.086;2023-06-14T09:05:20;2.65;;;1.40;;
15764;SDS011;7983;50.744;7.086;2023-06-14T09:07:48;1.50;;;1.33;;
15764;SDS011;7983;50.744;7.086;2023-06-14T09:10:16;1.35;;;1.20;;
15764;SDS011;7983;50.744;7.086;2023-06-14T09:12:47;3.08;;;1.42;;
15764;SDS011;7983;50.744;7.086;2023-06-14T09:15:13;2.20;;;1.63;;
15764;SDS011;7983;50.744;7.086;2023-06-14T09:17:39;2.08;;;1.42;;
15764;SDS011;7983;50.744;7.086;2023-06-14T09:20:06;1.75;;;1.40;;
15764;SDS011;7983;50.744;7.086;2023-06-14T09:22:38;1.48;;;1.35;;
15764;SDS011;7983;50.744;7.086;2023-06-14T09:25:04;1.73;;;1.33;;
15764;SDS011;7983;50.744;7.086;2023-06-14T09:27:33;1.40;;;1.30;;
15764;SDS011;7983;50.744;7.086;2023-06-14T09:30:00;1.40;;;1.30;;
15764;SDS011;7983;50.744;7.086;2023-06-14T09:32:30;1.70;;;1.30;;
15764;SDS011;7983;50.744;7.086;2023-06-14T09:34:56;2.65;;;2.10;;
15764;SDS011;7983;50.744;7.086;2023-06-14T09:37:28;2.00;;;1.80;;
15764;SDS011;7983;50.744;7.086;2023-06-14T09:39:54;1.83;;;1.50;;
15764;SDS011;7983;50.744;7.086;2023-06-14T09:42:20;1.77;;;1.30;;
15764;SDS011;7983;50.744;7.086;2023-06-14T09:44:49;1.95;;;1.35;;
15764;SDS011;7983;50.744;7.086;2023-06-14T09:47:18;1.30;;;1.10;;
15764;SDS011;7983;50.744;7.086;2023-06-14T09:49:44;1.20;;;1.10;;
15764;SDS011;7983;50.744;7.086;2023-06-14T09:52:10;1.42;;;1.20;;
15764;SDS011;7983;50.744;7.086;2023-06-14T09:54:40;3.40;;;1.60;;
15764;SDS011;7983;50.744;7.086;2023-06-14T09:57:11;2.08;;;1.35;;
15764;SDS011;7983;50.744;7.086;2023-06-14T09:59:42;1.63;;;1.20;;
15764;SDS011;7983;50.744;7.086;2023-06-14T10:02:15;1.70;;;1.40;;
15764;SDS011;7983;50.744;7.086;2023-06-14T10:05:02;2.05;;;1.50;;
15764;SDS011;7983;50.744;7.086;2023-06-14T10:07:32;2.20;;;2.00;;
15764;SDS011;7983;50.744;7.086;2023-06-14T10:10:00;1.77;;;1.42;;
15764;SDS011;7983;50.744;7.086;2023-06-14T10:12:29;3.13;;;1.50;;
15764;SDS011;7983;50.744;7.086;2023-06-14T10:14:58;1.77;;;1.40;;
15764;SDS011;7983;50.744;7.086;2023-06-14T10:23:12;1.75;;;1.45;;
15764;SDS011;7983;50.744;7.086;2023-06-14T10:25:42;2.35;;;1.90;;
15764;SDS011;7983;50.744;7.086;2023-06-14T10:33:34;2.20;;;1.50;;
15764;SDS011;7983;50.744;7.086;2023-06-14T10:36:24;1.38;;;1.27;;
15764;SDS011;7983;50.744;7.086;2023-06-14T10:41:39;4.70;;;1.30;;
15764;SDS011;7983;50.744;7.086;2023-06-14T10:46:42;3.15;;;1.30;;
15764;SDS011;7983;50.744;7.086;2023-06-14T10:49:11;2.08;;;1.40;;
15764;SDS011;7983;50.744;7.086;2023-06-14T10:51:40;2.65;;;1.40;;
15764;SDS011;7983;50.744;7.086;2023-06-14T10:54:13;2.53;;;1.40;;
15764;SDS011;7983;50.744;7.086;2023-06-14T10:56:45;1.75;;;1.40;;
15764;SDS011;7983;50.744;7.086;2023-06-14T10:59:14;1.73;;;1.40;;
15764;SDS011;7983;50.744;7.086;2023-06-14T11:01:52;3.42;;;1.30;;
15764;SDS011;7983;50.744;7.086;2023-06-14T11:04:44;1.48;;;1.38;;
15764;SDS011;7983;50.744;7.086;2023-06-14T11:12:41;1.77;;;1.33;;
15764;SDS011;7983;50.744;7.086;2023-06-14T11:15:10;2.55;;;2.15;;
15764;SDS011;7983;50.744;7.086;2023-06-14T11:17:37;2.67;;;1.75;;
15764;SDS011;7983;50.744;7.086;2023-06-14T11:20:10;1.55;;;1.30;;
15764;SDS011;7983;50.744;7.086;2023-06-14T11:22:41;1.80;;;1.30;;
15764;SDS011;7983;50.744;7.086;2023-06-14T11:25:11;1.30;;;1.20;;
15764;SDS011;7983;50.744;7.086;2023-06-14T11:27:37;2.13;;;1.10;;
15764;SDS011;7983;50.744;7.086;2023-06-14T11:30:07;2.40;;;1.30;;
15764;SDS011;7983;50.744;7.086;2023-06-14T11:32:34;1.48;;;1.35;;
15764;SDS011;7983;50.744;7.086;2023-06-14T11:35:02;1.90;;;1.40;;
15764;SDS011;7983;50.744;7.086;2023-06-14T11:37:31;1.33;;;1.17;;
15764;SDS011;7983;50.744;7.086;2023-06-14T11:40:03;1.73;;;1.63;;
15764;SDS011;7983;50.744;7.086;2023-06-14T11:42:34;1.30;;;1.13;;
15764;SDS011;7983;50.744;7.086;2023-06-14T11:45:07;1.45;;;1.20;;
15764;SDS011;7983;50.744;7.086;2023-06-14T11:47:34;1.38;;;1.10;;
15764;SDS011;7983;50.744;7.086;2023-06-14T11:50:01;1.75;;;1.45;;
15764;SDS011;7983;50.744;7.086;2023-06-14T11:52:29;2.92;;;1.88;;
15764;SDS011;7983;50.744;7.086;2023-06-14T11:54:55;1.55;;;1.30;;
15764;SDS011;7983;50.744;7.086;2023-06-14T11:57:24;1.35;;;1.23;;
15764;SDS011;7983;50.744;7.086;2023-06-14T11:59:55;2.42;;;1.30;;
15764;SDS011;7983;50.744;7.086;2023-06-14T12:02:21;2.25;;;1.40;;
15764;SDS011;7983;50.744;7.086;2023-06-14T12:04:47;1.50;;;1.13;;
15764;SDS011;7983;50.744;7.086;2023-06-14T12:07:16;1.40;;;1.20;;
15764;SDS011;7983;50.744;7.086;2023-06-14T12:12:21;1.10;;;1.00;;
15764;SDS011;7983;50.744;7.086;2023-06-14T12:14:47;9.40;;;4.93;;
15764;SDS011;7983;50.744;7.086;2023-06-14T12:17:16;3.13;;;2.70;;
15764;SDS011;7983;50.744;7.086;2023-06-14T12:19:44;1.75;;;1.52;;
15764;SDS011;7983;50.744;7.086;2023-06-14T12:22:11;2.00;;;1.58;;
15764;SDS011;7983;50.744;7.086;2023-06-14T12:24:45;2.25;;;1.10;;
15764;SDS011;7983;50.744;7.086;2023-06-14T12:27:11;1.13;;;1.02;;
15764;SDS011;7983;50.744;7.086;2023-06-14T12:29:40;1.20;;;1.00;;
15764;SDS011;7983;50.744;7.086;2023-06-14T12:32:09;1.10;;;0.98;;
15764;SDS011;7983;50.744;7.086;2023-06-14T12:34:37;1.52;;;0.93;;
15764;SDS011;7983;50.744;7.086;2023-06-14T12:37:03;0.98;;;0.90;;
15764;SDS011;7983;50.744;7.086;2023-06-14T12:39:31;1.83;;;0.98;;
15764;SDS011;7983;50.744;7.086;2023-06-14T12:42:04;2.25;;;1.10;;
15764;SDS011;7983;50.744;7.086;2023-06-14T12:44:32;1.10;;;1.00;;
15764;SDS011;7983;50.744;7.086;2023-06-14T12:47:00;1.15;;;1.00;;
15764;SDS011;7983;50.744;7.086;2023-06-14T12:49:26;1.00;;;0.90;;
15764;SDS011;7983;50.744;7.086;2023-06-14T12:51:52;1.33;;;0.95;;
15764;SDS011;7983;50.744;7.086;2023-06-14T12:54:20;1.13;;;0.88;;
15764;SDS011;7983;50.744;7.086;2023-06-14T12:56:47;2.80;;;1.80;;
15764;SDS011;7983;50.744;7.086;2023-06-14T12:59:12;2.10;;;1.30;;
15764;SDS011;7983;50.744;7.086;2023-06-14T13:01:38;2.03;;;1.10;;
15764;SDS011;7983;50.744;7.086;2023-06-14T13:04:05;1.05;;;0.85;;
15764;SDS011;7983;50.744;7.086;2023-06-14T13:06:30;1.42;;;1.00;;
15764;SDS011;7983;50.744;7.086;2023-06-14T13:08:56;1.00;;;0.93;;
15764;SDS011;7983;50.744;7.086;2023-06-14T13:11:25;1.25;;;1.00;;
15764;SDS011;7983;50.744;7.086;2023-06-14T13:13:51;0.98;;;0.88;;
15764;SDS011;7983;50.744;7.086;2023-06-14T13:16:17;1.60;;;1.50;;
15764;SDS011;7983;50.744;7.086;2023-06-14T13:18:42;2.17;;;1.40;;
15764;SDS011;7983;50.744;7.086;2023-06-14T13:21:10;1.27;;;1.00;;
15764;SDS011;7983;50.744;7.086;2023-06-14T13:23:36;1.42;;;1.23;;
15764;SDS011;7983;50.744;7.086;2023-06-14T13:26:01;1.30;;;1.20;;
15764;SDS011;7983;50.744;7.086;2023-06-14T13:28:27;1.38;;;1.10;;
15764;SDS011;7983;50.744;7.086;2023-06-14T13:30:53;1.88;;;1.50;;
15764;SDS011;7983;50.744;7.086;2023-06-14T13:33:20;2.15;;;1.20;;
15764;SDS011;7983;50.744;7.086;2023-06-14T13:35:49;1.98;;;1.30;;
15764;SDS011;7983;50.744;7.086;2023-06-14T13:38:15;1.30;;;1.17;;
15764;SDS011;7983;50.744;7.086;2023-06-14T13:40:43;2.47;;;1.40;;
15764;SDS011;7983;50.744;7.086;2023-06-14T13:43:08;2.47;;;1.33;;
15764;SDS011;7983;50.744;7.086;2023-06-14T13:45:39;1.98;;;1.40;;
15764;SDS011;7983;50.744;7.086;2023-06-14T13:48:06;2.40;;;2.20;;
15764;SDS011;7983;50.744;7.086;2023-06-14T13:50:32;1.80;;;1.52;;
15764;SDS011;7983;50.744;7.086;2023-06-14T13:52:58;1.58;;;1.38;;
15764;SDS011;7983;50.744;7.086;2023-06-14T13:55:24;1.42;;;1.33;;
15764;SDS011;7983;50.744;7.086;2023-06-14T13:57:50;2.20;;;1.40;;
15764;SDS011;7983;50.744;7.086;2023-06-14T14:00:16;2.70;;;1.30;;
15764;SDS011;7983;50.744;7.086;2023-06-14T14:02:44;2.38;;;1.38;;
15764;SDS011;7983;50.744;7.086;2023-06-14T14:05:10;1.55;;;1.10;;
15764;SDS011;7983;50.744;7.086;2023-06-14T14:07:36;1.50;;;1.25;;
15764;SDS011;7983;50.744;7.086;2023-06-14T14:10:02;1.63;;;1.30;;
15764;SDS011;7983;50.744;7.086;2023-06-14T14:12:28;3.05;;;1.38;;
15764;SDS011;7983;50.744;7.086;2023-06-14T14:14:56;1.83;;;1.20;;
15764;SDS011;7983;50.744;7.086;2023-06-14T14:17:22;3.55;;;1.50;;
15764;SDS011;7983;50.744;7.086;2023-06-14T14:19:48;1.50;;;1.40;;
15764;SDS011;7983;50.744;7.086;2023-06-14T14:22:16;1.30;;;1.20;;
15764;SDS011;7983;50.744;7.086;2023-06-14T14:24:42;1.15;;;1.05;;
15764;SDS011;7983;50.744;7.086;2023-06-14T14:27:07;2.45;;;1.17;;
15764;SDS011;7983;50.744;7.086;2023-06-14T14:29:38;1.10;;;1.00;;
15764;SDS011;7983;50.744;7.086;2023-06-14T14:32:06;1.90;;;1.13;;
15764;SDS011;7983;50.744;7.086;2023-06-14T14:34:34;1.58;;;1.30;;
15764;SDS011;7983;50.744;7.086;2023-06-14T14:37:00;2.40;;;1.30;;
15764;SDS011;7983;50.744;7.086;2023-06-14T14:39:27;2.00;;;1.40;;
15764;SDS011;7983;50.744;7.086;2023-06-14T14:41:53;1.40;;;1.30;;
15764;SDS011;7983;50.744;7.086;2023-06-14T14:44:19;3.40;;;2.63;;
15764;SDS011;7983;50.744;7.086;2023-06-14T14:46:46;2.22;;;2.05;;
15764;SDS011;7983;50.744;7.086;2023-06-14T14:49:12;1.90;;;1.77;;
15764;SDS011;7983;50.744;7.086;2023-06-14T14:51:38;1.70;;;1.42;;
15764;SDS011;7983;50.744;7.086;2023-06-14T14:54:07;1.55;;;1.30;;
15764;SDS011;7983;50.744;7.086;2023-06-14T14:56:32;1.90;;;1.30;;
15764;SDS011;7983;50.744;7.086;2023-06-14T14:59:02;3.22;;;1.40;;
15764;SDS011;7983;50.744;7.086;2023-06-14T15:01:28;3.78;;;1.30;;
15764;SDS011;7983;50.744;7.086;2023-06-14T15:03:54;6.70;;;1.30;;
15764;SDS011;7983;50.744;7.086;2023-06-14T15:06:19;2.55;;;1.30;;
15764;SDS011;7983;50.744;7.086;2023-06-14T15:08:47;2.55;;;1.65;;
15764;SDS011;7983;50.744;7.086;2023-06-14T15:11:18;1.70;;;1.45;;
15764;SDS011;7983;50.744;7.086;2023-06-14T15:13:46;1.60;;;1.35;;
15764;SDS011;7983;50.744;7.086;2023-06-14T15:16:12;1.65;;;1.05;;
15764;SDS011;7983;50.744;7.086;2023-06-14T15:18:38;1.55;;;1.45;;
15764;SDS011;7983;50.744;7.086;2023-06-14T15:21:05;1.80;;;1.25;;
15764;SDS011;7983;50.744;7.086;2023-06-14T15:23:38;1.75;;;1.35;;
15764;SDS011;7983;50.744;7.086;2023-06-14T15:26:04;2.65;;;1.30;;
15764;SDS011;7983;50.744;7.086;2023-06-14T15:28:30;1.90;;;1.70;;